sensor_id;sensor_type;location;lat;lon;timestamp;P1;durP1;ratioP1;P2;durP2;ratioP2
9052;SDS011;4561;47.450;7.516;2023-06-10T00:01:23;5.00;;;4.10;;
9052;SDS011;4561;47.450;7.516;2023-06-10T00:04:44;4.30;;;4.00;;
9052;SDS011;4561;47.450;7.516;2023-06-10T00:08:10;5.20;;;4.47;;
9052;SDS011;4561;47.450;7.516;2023-06-10T00:11:36;4.43;;;4.03;;
9052;SDS011;4561;47.450;7.516;2023-06-10T00:14:59;4.10;;;3.80;;
9052;SDS011;4561;47.450;7.516;2023-06-10T00:18:19;4.40;;;4.00;;
9052;SDS011;4561;47.450;7.516;2023-06-10T00:21:41;4.57;;;4.17;;
9052;SDS011;4561;47.450;7.516;2023-06-10T00:25:01;5.20;;;4.30;;
9052;SDS011;4561;47.450;7.516;2023-06-10T00:28:24;4.57;;;4.17;;
9052;SDS011;4561;47.450;7.516;2023-06-10T00:31:50;4.60;;;3.80;;
9052;SDS011;4561;47.450;7.516;2023-06-10T00:35:10;4.50;;;3.97;;
9052;SDS011;4561;47.450;7.516;2023-06-10T00:38:30;5.60;;;3.93;;
9052;SDS011;4561;47.450;7.516;2023-06-10T00:41:51;4.30;;;3.90;;
9052;SDS011;4561;47.450;7.516;2023-06-10T00:45:12;4.23;;;3.50;;
9052;SDS011;4561;47.450;7.516;2023-06-10T00:48:32;5.27;;;3.53;;
9052;SDS011;4561;47.450;7.516;2023-06-10T00:51:53;4.53;;;3.97;;
9052;SDS011;4561;47.450;7.516;2023-06-10T00:55:14;3.57;;;3.27;;
9052;SDS011;4561;47.450;7.516;2023-06-10T00:58:39;4.07;;;3.77;;
9052;SDS011;4561;47.450;7.516;2023-06-10T01:01:59;3.60;;;3.33;;
9052;SDS011;4561;47.450;7.516;2023-06-10T01:05:21;3.90;;;3.60;;
9052;SDS011;4561;47.450;7.516;2023-06-10T01:08:49;4.40;;;3.60;;
9052;SDS011;4561;47.450;7.516;2023-06-10T01:12:34;3.80;;;3.50;;
9052;SDS011;4561;47.450;7.516;2023-06-10T01:16:00;5.07;;;3.63;;
9052;SDS011;4561;47.450;7.516;2023-06-10T01:19:21;3.93;;;3.63;;
9052;SDS011;4561;47.450;7.516;2023-06-10T01:22:44;3.67;;;3.37;;
9052;SDS011;4561;47.450;7.516;2023-06-10T01:26:06;4.63;;;3.50;;
9052;SDS011;4561;47.450;7.516;2023-06-10T01:33:06;4.17;;;3.77;;
9052;SDS011;4561;47.450;7.516;2023-06-10T01:36:29;4.07;;;3.67;;
9052;SDS011;4561;47.450;7.516;2023-06-10T01:39:51;4.07;;;3.77;;
9052;SDS011;4561;47.450;7.516;2023-06-10T01:43:12;3.73;;;3.43;;
9052;SDS011;4561;47.450;7.516;2023-06-10T01:46:32;3.57;;;3.27;;
9052;SDS011;4561;47.450;7.516;2023-06-10T01:49:53;3.90;;;3.60;;
9052;SDS011;4561;47.450;7.516;2023-06-10T01:53:13;4.00;;;3.67;;
9052;SDS011;4561;47.450;7.516;2023-06-10T01:56:33;7.40;;;3.33;;
9052;SDS011;4561;47.450;7.516;2023-06-10T01:59:54;4.40;;;3.40;;
9052;SDS011;4561;47.450;7.516;2023-06-10T02:03:14;3.57;;;3.30;;
9052;SDS011;4561;47.450;7.516;2023-06-10T02:06:38;3.97;;;3.67;;
9052;SDS011;4561;47.450;7.516;2023-06-10T02:10:03;3.70;;;3.33;;
9052;SDS011;4561;47.450;7.516;2023-06-10T02:13:25;3.90;;;3.60;;
9052;SDS011;4561;47.450;7.516;2023-06-10T02:16:45;4.07;;;3.37;;
9052;SDS011;4561;47.450;7.516;2023-06-10T02:20:06;5.07;;;3.67;;
9052;SDS011;4561;47.450;7.516;2023-06-10T02:23:30;4.87;;;3.53;;
9052;SDS011;4561;47.450;7.516;2023-06-10T02:26:51;4.20;;;3.80;;
9052;SDS011;4561;47.450;7.516;2023-06-10T02:30:15;4.30;;;3.90;;
9052;SDS011;4561;47.450;7.516;2023-06-10T02:33:36;4.13;;;3.83;;
9052;SDS011;4561;47.450;7.516;2023-06-10T02:37:01;4.20;;;3.80;;
9052;SDS011;4561;47.450;7.516;2023-06-10T02:40:22;4.53;;;3.90;;
9052;SDS011;4561;47.450;7.516;2023-06-10T02:43:42;4.20;;;3.80;;
9052;SDS011;4561;47.450;7.516;2023-06-10T02:47:03;5.67;;;3.63;;
9052;SDS011;4561;47.450;7.516;2023-06-10T02:50:28;4.33;;;3.93;;
9052;SDS011;4561;47.450;7.516;2023-06-10T02:53:48;4.13;;;3.73;;
9052;SDS011;4561;47.450;7.516;2023-06-10T02:57:12;4.07;;;3.77;;
9052;SDS011;4561;47.450;7.516;2023-06-10T03:00:34;4.20;;;3.80;;
9052;SDS011;4561;47.450;7.516;2023-06-10T03:03:55;4.47;;;4.07;;
9052;SDS011;4561;47.450;7.516;2023-06-10T03:07:16;3.83;;;3.53;;
9052;SDS011;4561;47.450;7.516;2023-06-10T03:10:36;5.17;;;3.87;;
9052;SDS011;4561;47.450;7.516;2023-06-10T03:13:59;4.27;;;3.97;;
9052;SDS011;4561;47.450;7.516;2023-06-10T03:17:19;5.10;;;3.90;;
9052;SDS011;4561;47.450;7.516;2023-06-10T03:20:40;4.43;;;4.03;;
9052;SDS011;4561;47.450;7.516;2023-06-10T03:24:00;4.97;;;4.43;;
9052;SDS011;4561;47.450;7.516;2023-06-10T03:27:26;4.70;;;4.30;;
9052;SDS011;4561;47.450;7.516;2023-06-10T03:30:47;4.80;;;4.40;;
9052;SDS011;4561;47.450;7.516;2023-06-10T03:34:08;4.20;;;3.90;;
9052;SDS011;4561;47.450;7.516;2023-06-10T03:37:28;4.30;;;3.90;;
9052;SDS011;4561;47.450;7.516;2023-06-10T03:40:51;4.40;;;4.10;;
9052;SDS011;4561;47.450;7.516;2023-06-10T03:44:11;4.97;;;4.57;;
9052;SDS011;4561;47.450;7.516;2023-06-10T03:47:34;5.57;;;4.23;;
9052;SDS011;4561;47.450;7.516;2023-06-10T03:50:55;4.83;;;4.43;;
9052;SDS011;4561;47.450;7.516;2023-06-10T03:54:16;5.87;;;4.37;;
9052;SDS011;4561;47.450;7.516;2023-06-10T03:57:36;5.10;;;4.53;;
9052;SDS011;4561;47.450;7.516;2023-06-10T04:00:57;4.50;;;4.10;;
9052;SDS011;4561;47.450;7.516;2023-06-10T04:04:17;5.17;;;4.60;;
9052;SDS011;4561;47.450;7.516;2023-06-10T04:07:43;5.13;;;4.40;;
9052;SDS011;4561;47.450;7.516;2023-06-10T04:11:08;5.23;;;4.83;;
9052;SDS011;4561;47.450;7.516;2023-06-10T04:14:29;4.43;;;4.03;;
9052;SDS011;4561;47.450;7.516;2023-06-10T04:17:49;5.37;;;4.87;;
9052;SDS011;4561;47.450;7.516;2023-06-10T04:21:12;5.00;;;4.47;;
9052;SDS011;4561;47.450;7.516;2023-06-10T04:24:35;4.60;;;4.20;;
9052;SDS011;4561;47.450;7.516;2023-06-10T04:27:55;4.83;;;4.43;;
9052;SDS011;4561;47.450;7.516;2023-06-10T04:31:16;4.97;;;4.33;;
9052;SDS011;4561;47.450;7.516;2023-06-10T04:34:39;4.90;;;4.50;;
9052;SDS011;4561;47.450;7.516;2023-06-10T04:38:04;5.03;;;4.63;;
9052;SDS011;4561;47.450;7.516;2023-06-10T04:41:29;5.10;;;4.60;;
9052;SDS011;4561;47.450;7.516;2023-06-10T04:44:49;5.43;;;4.90;;
9052;SDS011;4561;47.450;7.516;2023-06-10T04:48:12;5.17;;;4.73;;
9052;SDS011;4561;47.450;7.516;2023-06-10T04:51:34;4.80;;;4.27;;
9052;SDS011;4561;47.450;7.516;2023-06-10T04:55:00;5.20;;;4.80;;
9052;SDS011;4561;47.450;7.516;2023-06-10T04:58:23;4.97;;;4.57;;
9052;SDS011;4561;47.450;7.516;2023-06-10T05:01:43;5.63;;;5.13;;
9052;SDS011;4561;47.450;7.516;2023-06-10T05:05:06;5.53;;;5.03;;
9052;SDS011;4561;47.450;7.516;2023-06-10T05:08:26;5.17;;;4.77;;
9052;SDS011;4561;47.450;7.516;2023-06-10T05:11:47;4.63;;;4.33;;
9052;SDS011;4561;47.450;7.516;2023-06-10T05:15:09;6.43;;;5.30;;
9052;SDS011;4561;47.450;7.516;2023-06-10T05:18:30;5.63;;;5.13;;
9052;SDS011;4561;47.450;7.516;2023-06-10T05:21:51;5.23;;;4.80;;
9052;SDS011;4561;47.450;7.516;2023-06-10T05:25:11;5.27;;;4.87;;
9052;SDS011;4561;47.450;7.516;2023-06-10T05:28:37;6.63;;;5.47;;
9052;SDS011;4561;47.450;7.516;2023-06-10T05:32:02;6.83;;;5.60;;
9052;SDS011;4561;47.450;7.516;2023-06-10T05:35:23;6.97;;;5.60;;
9052;SDS011;4561;47.450;7.516;2023-06-10T05:38:43;6.33;;;5.80;;
9052;SDS011;4561;47.450;7.516;2023-06-10T05:42:09;5.90;;;5.40;;
9052;SDS011;4561;47.450;7.516;2023-06-10T05:45:30;6.37;;;5.77;;
9052;SDS011;4561;47.450;7.516;2023-06-10T05:48:50;5.33;;;4.93;;
9052;SDS011;4561;47.450;7.516;2023-06-10T05:52:11;5.80;;;5.30;;
9052;SDS011;4561;47.450;7.516;2023-06-10T05:55:33;6.30;;;5.73;;
9052;SDS011;4561;47.450;7.516;2023-06-10T05:58:54;6.93;;;6.13;;
9052;SDS011;4561;47.450;7.516;2023-06-10T06:02:14;5.57;;;5.07;;
9052;SDS011;4561;47.450;7.516;2023-06-10T06:05:37;5.73;;;5.33;;
9052;SDS011;4561;47.450;7.516;2023-06-10T06:08:58;7.60;;;5.00;;
9052;SDS011;4561;47.450;7.516;2023-06-10T06:12:18;7.33;;;5.60;;
9052;SDS011;4561;47.450;7.516;2023-06-10T06:15:39;6.30;;;5.70;;
9052;SDS011;4561;47.450;7.516;2023-06-10T06:18:59;5.95;;;5.32;;
9052;SDS011;4561;47.450;7.516;2023-06-10T06:22:20;5.82;;;5.30;;
9052;SDS011;4561;47.450;7.516;2023-06-10T06:25:42;5.93;;;5.30;;
9052;SDS011;4561;47.450;7.516;2023-06-10T06:29:02;6.13;;;5.55;;
9052;SDS011;4561;47.450;7.516;2023-06-10T06:32:25;6.22;;;5.72;;
9052;SDS011;4561;47.450;7.516;2023-06-10T06:35:47;5.32;;;4.93;;
9052;SDS011;4561;47.450;7.516;2023-06-10T06:39:07;5.55;;;5.15;;
9052;SDS011;4561;47.450;7.516;2023-06-10T06:42:28;6.05;;;5.55;;
9052;SDS011;4561;47.450;7.516;2023-06-10T06:45:48;5.47;;;5.07;;
9052;SDS011;4561;47.450;7.516;2023-06-10T06:49:08;6.13;;;5.53;;
9052;SDS011;4561;47.450;7.516;2023-06-10T06:52:34;6.10;;;5.60;;
9052;SDS011;4561;47.450;7.516;2023-06-10T06:55:54;5.75;;;5.30;;
9052;SDS011;4561;47.450;7.516;2023-06-10T06:59:17;6.05;;;5.55;;
9052;SDS011;4561;47.450;7.516;2023-06-10T07:02:39;7.53;;;5.75;;
9052;SDS011;4561;47.450;7.516;2023-06-10T07:06:00;6.63;;;6.03;;
9052;SDS011;4561;47.450;7.516;2023-06-10T07:09:20;8.38;;;5.30;;
9052;SDS011;4561;47.450;7.516;2023-06-10T07:12:41;5.60;;;5.15;;
9052;SDS011;4561;47.450;7.516;2023-06-10T07:16:01;5.57;;;5.05;;
9052;SDS011;4561;47.450;7.516;2023-06-10T07:19:25;6.25;;;5.65;;
9052;SDS011;4561;47.450;7.516;2023-06-10T07:22:45;5.63;;;5.22;;
9052;SDS011;4561;47.450;7.516;2023-06-10T07:26:05;5.50;;;5.10;;
9052;SDS011;4561;47.450;7.516;2023-06-10T07:29:26;6.05;;;5.43;;
9052;SDS011;4561;47.450;7.516;2023-06-10T07:32:47;5.60;;;5.10;;
9052;SDS011;4561;47.450;7.516;2023-06-10T07:36:07;6.63;;;5.60;;
9052;SDS011;4561;47.450;7.516;2023-06-10T07:39:30;6.15;;;5.55;;
9052;SDS011;4561;47.450;7.516;2023-06-10T07:42:51;5.55;;;5.05;;
9052;SDS011;4561;47.450;7.516;2023-06-10T07:46:14;5.90;;;5.25;;
9052;SDS011;4561;47.450;7.516;2023-06-10T07:49:36;5.53;;;5.13;;
9052;SDS011;4561;47.450;7.516;2023-06-10T07:52:57;6.20;;;5.63;;
9052;SDS011;4561;47.450;7.516;2023-06-10T07:56:17;6.40;;;5.78;;
9052;SDS011;4561;47.450;7.516;2023-06-10T07:59:41;5.75;;;5.25;;
9052;SDS011;4561;47.450;7.516;2023-06-10T08:03:04;6.03;;;5.53;;
9052;SDS011;4561;47.450;7.516;2023-06-10T08:06:24;5.53;;;5.13;;
9052;SDS011;4561;47.450;7.516;2023-06-10T08:09:45;5.88;;;5.47;;
9052;SDS011;4561;47.450;7.516;2023-06-10T08:13:05;5.75;;;5.25;;
9052;SDS011;4561;47.450;7.516;2023-06-10T08:16:26;6.07;;;5.07;;
9052;SDS011;4561;47.450;7.516;2023-06-10T08:19:46;6.50;;;5.43;;
9052;SDS011;4561;47.450;7.516;2023-06-10T08:23:07;5.97;;;5.57;;
9052;SDS011;4561;47.450;7.516;2023-06-10T08:26:27;5.50;;;5.03;;
9052;SDS011;4561;47.450;7.516;2023-06-10T08:29:47;5.95;;;5.55;;
9052;SDS011;4561;47.450;7.516;2023-06-10T08:33:08;4.38;;;4.07;;
9052;SDS011;4561;47.450;7.516;2023-06-10T08:36:28;4.57;;;4.25;;
9052;SDS011;4561;47.450;7.516;2023-06-10T08:39:49;8.20;;;4.43;;
9052;SDS011;4561;47.450;7.516;2023-06-10T08:43:21;4.93;;;4.53;;
9052;SDS011;4561;47.450;7.516;2023-06-10T08:46:47;5.18;;;4.70;;
9052;SDS011;4561;47.450;7.516;2023-06-10T08:50:08;4.72;;;4.30;;
9052;SDS011;4561;47.450;7.516;2023-06-10T08:53:33;4.35;;;3.95;;
9052;SDS011;4561;47.450;7.516;2023-06-10T08:56:59;6.32;;;4.47;;
9052;SDS011;4561;47.450;7.516;2023-06-10T09:00:20;4.97;;;4.57;;
9052;SDS011;4561;47.450;7.516;2023-06-10T09:03:43;4.47;;;4.18;;
9052;SDS011;4561;47.450;7.516;2023-06-10T09:07:03;5.63;;;3.95;;
9052;SDS011;4561;47.450;7.516;2023-06-10T09:10:24;4.38;;;4.03;;
9052;SDS011;4561;47.450;7.516;2023-06-10T09:13:47;3.63;;;3.30;;
9052;SDS011;4561;47.450;7.516;2023-06-10T09:17:07;5.38;;;3.83;;
9052;SDS011;4561;47.450;7.516;2023-06-10T09:20:28;3.90;;;3.60;;
9052;SDS011;4561;47.450;7.516;2023-06-10T09:23:48;4.50;;;3.72;;
9052;SDS011;4561;47.450;7.516;2023-06-10T09:27:11;4.03;;;3.72;;
9052;SDS011;4561;47.450;7.516;2023-06-10T09:30:31;4.28;;;3.50;;
9052;SDS011;4561;47.450;7.516;2023-06-10T09:33:54;4.60;;;4.20;;
9052;SDS011;4561;47.450;7.516;2023-06-10T09:37:21;4.30;;;3.90;;
9052;SDS011;4561;47.450;7.516;2023-06-10T09:40:52;4.07;;;3.72;;
9052;SDS011;4561;47.450;7.516;2023-06-10T09:44:17;5.03;;;3.55;;
9052;SDS011;4561;47.450;7.516;2023-06-10T09:47:40;4.10;;;3.80;;
9052;SDS011;4561;47.450;7.516;2023-06-10T09:51:03;4.20;;;3.90;;
9052;SDS011;4561;47.450;7.516;2023-06-10T09:54:31;5.50;;;3.85;;
9052;SDS011;4561;47.450;7.516;2023-06-10T09:57:54;4.40;;;3.97;;
9052;SDS011;4561;47.450;7.516;2023-06-10T10:01:14;4.22;;;3.92;;
9052;SDS011;4561;47.450;7.516;2023-06-10T10:04:35;3.80;;;3.50;;
9052;SDS011;4561;47.450;7.516;2023-06-10T10:07:56;4.22;;;3.92;;
9052;SDS011;4561;47.450;7.516;2023-06-10T10:11:24;4.85;;;4.45;;
9052;SDS011;4561;47.450;7.516;2023-06-10T10:14:46;4.90;;;4.00;;
9052;SDS011;4561;47.450;7.516;2023-06-10T10:18:09;5.20;;;4.10;;
9052;SDS011;4561;47.450;7.516;2023-06-10T10:21:31;4.45;;;4.05;;
9052;SDS011;4561;47.450;7.516;2023-06-10T10:24:56;5.95;;;4.15;;
9052;SDS011;4561;47.450;7.516;2023-06-10T10:28:20;4.20;;;3.80;;
9052;SDS011;4561;47.450;7.516;2023-06-10T10:31:42;4.50;;;4.10;;
9052;SDS011;4561;47.450;7.516;2023-06-10T10:35:07;4.32;;;4.00;;
9052;SDS011;4561;47.450;7.516;2023-06-10T10:38:29;4.20;;;3.90;;
9052;SDS011;4561;47.450;7.516;2023-06-10T10:41:52;3.85;;;3.55;;
9052;SDS011;4561;47.450;7.516;2023-06-10T10:45:12;4.85;;;3.97;;
9052;SDS011;4561;47.450;7.516;2023-06-10T10:48:38;4.13;;;3.72;;
9052;SDS011;4561;47.450;7.516;2023-06-10T10:52:01;5.00;;;4.50;;
9052;SDS011;4561;47.450;7.516;2023-06-10T10:55:24;4.22;;;3.92;;
9052;SDS011;4561;47.450;7.516;2023-06-10T11:02:43;5.32;;;4.47;;
9052;SDS011;4561;47.450;7.516;2023-06-10T11:06:16;4.93;;;4.53;;
9052;SDS011;4561;47.450;7.516;2023-06-10T11:09:37;5.18;;;4.68;;
9052;SDS011;4561;47.450;7.516;2023-06-10T11:12:58;5.20;;;4.80;;
9052;SDS011;4561;47.450;7.516;2023-06-10T11:16:19;5.28;;;4.82;;
9052;SDS011;4561;47.450;7.516;2023-06-10T11:19:39;6.40;;;4.88;;
9052;SDS011;4561;47.450;7.516;2023-06-10T11:23:06;5.13;;;4.68;;
9052;SDS011;4561;47.450;7.516;2023-06-10T11:33:20;5.55;;;5.15;;
9052;SDS011;4561;47.450;7.516;2023-06-10T11:36:43;5.30;;;4.90;;
9052;SDS011;4561;47.450;7.516;2023-06-10T11:40:08;6.93;;;4.75;;
9052;SDS011;4561;47.450;7.516;2023-06-10T11:43:31;5.78;;;5.28;;
9052;SDS011;4561;47.450;7.516;2023-06-10T11:46:56;6.00;;;5.50;;
9052;SDS011;4561;47.450;7.516;2023-06-10T11:50:20;5.70;;;5.20;;
9052;SDS011;4561;47.450;7.516;2023-06-10T11:53:50;6.20;;;5.03;;
9052;SDS011;4561;47.450;7.516;2023-06-10T11:57:14;7.20;;;5.40;;
9052;SDS011;4561;47.450;7.516;2023-06-10T12:00:35;5.47;;;5.00;;
9052;SDS011;4561;47.450;7.516;2023-06-10T12:03:59;5.30;;;4.90;;
9052;SDS011;4561;47.450;7.516;2023-06-10T12:07:26;8.02;;;5.03;;
9052;SDS011;4561;47.450;7.516;2023-06-10T12:10:47;5.03;;;4.63;;
9052;SDS011;4561;47.450;7.516;2023-06-10T12:14:07;6.13;;;4.85;;
9052;SDS011;4561;47.450;7.516;2023-06-10T12:20:54;6.72;;;4.80;;
9052;SDS011;4561;47.450;7.516;2023-06-10T12:24:14;5.32;;;4.85;;
9052;SDS011;4561;47.450;7.516;2023-06-10T12:27:39;6.13;;;4.88;;
9052;SDS011;4561;47.450;7.516;2023-06-10T12:31:07;7.03;;;5.00;;
9052;SDS011;4561;47.450;7.516;2023-06-10T12:34:31;5.90;;;4.38;;
9052;SDS011;4561;47.450;7.516;2023-06-10T12:38:03;6.20;;;5.18;;
9052;SDS011;4561;47.450;7.516;2023-06-10T12:41:28;5.10;;;4.70;;
9052;SDS011;4561;47.450;7.516;2023-06-10T12:44:52;5.53;;;5.10;;
9052;SDS011;4561;47.450;7.516;2023-06-10T12:48:21;6.05;;;4.65;;
9052;SDS011;4561;47.450;7.516;2023-06-10T12:51:47;4.90;;;4.50;;
9052;SDS011;4561;47.450;7.516;2023-06-10T12:55:08;5.43;;;5.00;;
9052;SDS011;4561;47.450;7.516;2023-06-10T12:58:28;5.70;;;5.13;;
9052;SDS011;4561;47.450;7.516;2023-06-10T13:01:52;5.10;;;4.65;;
9052;SDS011;4561;47.450;7.516;2023-06-10T13:05:12;5.85;;;5.13;;
9052;SDS011;4561;47.450;7.516;2023-06-10T13:08:36;6.32;;;4.88;;
9052;SDS011;4561;47.450;7.516;2023-06-10T13:11:59;5.10;;;4.70;;
9052;SDS011;4561;47.450;7.516;2023-06-10T13:15:22;8.60;;;5.40;;
9052;SDS011;4561;47.450;7.516;2023-06-10T13:18:42;5.72;;;5.28;;
9052;SDS011;4561;47.450;7.516;2023-06-10T13:22:03;5.97;;;4.88;;
9052;SDS011;4561;47.450;7.516;2023-06-10T13:25:23;4.72;;;4.35;;
9052;SDS011;4561;47.450;7.516;2023-06-10T13:28:44;6.63;;;5.03;;
9052;SDS011;4561;47.450;7.516;2023-06-10T13:32:05;6.72;;;5.30;;
9052;SDS011;4561;47.450;7.516;2023-06-10T13:35:28;6.45;;;5.70;;
9052;SDS011;4561;47.450;7.516;2023-06-10T13:38:48;6.00;;;5.50;;
9052;SDS011;4561;47.450;7.516;2023-06-10T13:42:09;5.68;;;5.28;;
9052;SDS011;4561;47.450;7.516;2023-06-10T13:45:29;5.82;;;5.30;;
9052;SDS011;4561;47.450;7.516;2023-06-10T13:48:50;6.03;;;5.53;;
9052;SDS011;4561;47.450;7.516;2023-06-10T13:52:13;5.80;;;5.32;;
9052;SDS011;4561;47.450;7.516;2023-06-10T13:55:34;7.10;;;5.60;;
9052;SDS011;4561;47.450;7.516;2023-06-10T13:58:54;6.47;;;5.88;;
9052;SDS011;4561;47.450;7.516;2023-06-10T14:02:17;6.75;;;5.80;;
9052;SDS011;4561;47.450;7.516;2023-06-10T14:05:37;6.68;;;5.95;;
9052;SDS011;4561;47.450;7.516;2023-06-10T14:08:59;6.45;;;5.85;;
9052;SDS011;4561;47.450;7.516;2023-06-10T14:12:22;6.07;;;5.55;;
9052;SDS011;4561;47.450;7.516;2023-06-10T14:15:42;6.55;;;5.97;;
9052;SDS011;4561;47.450;7.516;2023-06-10T14:19:05;7.20;;;5.82;;
9052;SDS011;4561;47.450;7.516;2023-06-10T14:22:25;6.97;;;5.53;;
9052;SDS011;4561;47.450;7.516;2023-06-10T14:25:46;7.45;;;5.38;;
9052;SDS011;4561;47.450;7.516;2023-06-10T14:29:06;7.32;;;6.07;;
9052;SDS011;4561;47.450;7.516;2023-06-10T14:32:27;6.97;;;5.72;;
9052;SDS011;4561;47.450;7.516;2023-06-10T14:35:47;7.70;;;5.97;;
9052;SDS011;4561;47.450;7.516;2023-06-10T14:39:07;6.35;;;5.75;;
9052;SDS011;4561;47.450;7.516;2023-06-10T14:42:28;7.15;;;6.38;;
9052;SDS011;4561;47.450;7.516;2023-06-10T14:45:48;6.90;;;6.20;;
9052;SDS011;4561;47.450;7.516;2023-06-10T14:49:11;6.95;;;6.22;;
9052;SDS011;4561;47.450;7.516;2023-06-10T14:52:31;6.20;;;5.65;;
9052;SDS011;4561;47.450;7.516;2023-06-10T14:55:54;6.65;;;6.15;;
9052;SDS011;4561;47.450;7.516;2023-06-10T14:59:17;6.55;;;6.05;;
9052;SDS011;4561;47.450;7.516;2023-06-10T15:02:38;6.15;;;5.65;;
9052;SDS011;4561;47.450;7.516;2023-06-10T15:06:01;8.77;;;6.43;;
9052;SDS011;4561;47.450;7.516;2023-06-10T15:09:21;6.07;;;5.60;;
9052;SDS011;4561;47.450;7.516;2023-06-10T15:12:45;6.28;;;5.78;;
9052;SDS011;4561;47.450;7.516;2023-06-10T15:16:05;6.57;;;5.95;;
9052;SDS011;4561;47.450;7.516;2023-06-10T15:19:26;6.38;;;5.72;;
9052;SDS011;4561;47.450;7.516;2023-06-10T15:22:47;6.63;;;6.00;;
9052;SDS011;4561;47.450;7.516;2023-06-10T15:26:07;6.70;;;5.65;;
9052;SDS011;4561;47.450;7.516;2023-06-10T15:29:28;6.80;;;5.63;;
9052;SDS011;4561;47.450;7.516;2023-06-10T15:32:48;7.40;;;6.70;;
9052;SDS011;4561;47.450;7.516;2023-06-10T15:36:08;6.20;;;5.68;;
9052;SDS011;4561;47.450;7.516;2023-06-10T15:39:29;6.47;;;5.80;;
9052;SDS011;4561;47.450;7.516;2023-06-10T15:42:51;6.43;;;5.82;;
9052;SDS011;4561;47.450;7.516;2023-06-10T15:46:11;7.50;;;6.05;;
9052;SDS011;4561;47.450;7.516;2023-06-10T15:49:34;6.38;;;5.88;;
9052;SDS011;4561;47.450;7.516;2023-06-10T15:52:57;6.28;;;5.72;;
9052;SDS011;4561;47.450;7.516;2023-06-10T15:56:17;6.72;;;6.00;;
9052;SDS011;4561;47.450;7.516;2023-06-10T15:59:38;6.88;;;6.28;;
9052;SDS011;4561;47.450;7.516;2023-06-10T16:03:00;6.28;;;5.88;;
9052;SDS011;4561;47.450;7.516;2023-06-10T16:06:21;6.53;;;6.03;;
9052;SDS011;4561;47.450;7.516;2023-06-10T16:09:44;6.50;;;6.00;;
9052;SDS011;4561;47.450;7.516;2023-06-10T16:13:04;7.20;;;6.60;;
9052;SDS011;4561;47.450;7.516;2023-06-10T16:16:24;6.63;;;6.13;;
9052;SDS011;4561;47.450;7.516;2023-06-10T16:19:45;7.20;;;6.50;;
9052;SDS011;4561;47.450;7.516;2023-06-10T16:23:07;7.32;;;6.65;;
9052;SDS011;4561;47.450;7.516;2023-06-10T16:26:30;8.50;;;7.15;;
9052;SDS011;4561;47.450;7.516;2023-06-10T16:29:51;6.63;;;6.03;;
9052;SDS011;4561;47.450;7.516;2023-06-10T16:33:12;7.25;;;6.53;;
9052;SDS011;4561;47.450;7.516;2023-06-10T16:36:35;7.35;;;6.75;;
9052;SDS011;4561;47.450;7.516;2023-06-10T16:39:56;6.78;;;6.20;;
9052;SDS011;4561;47.450;7.516;2023-06-10T16:43:16;8.25;;;6.30;;
9052;SDS011;4561;47.450;7.516;2023-06-10T16:46:36;6.05;;;5.55;;
9052;SDS011;4561;47.450;7.516;2023-06-10T16:49:57;7.13;;;6.53;;
9052;SDS011;4561;47.450;7.516;2023-06-10T16:53:21;6.38;;;5.97;;
9052;SDS011;4561;47.450;7.516;2023-06-10T16:56:43;6.50;;;5.90;;
9052;SDS011;4561;47.450;7.516;2023-06-10T17:00:04;6.00;;;5.32;;
9052;SDS011;4561;47.450;7.516;2023-06-10T17:03:26;8.32;;;6.28;;
9052;SDS011;4561;47.450;7.516;2023-06-10T17:06:49;7.07;;;6.40;;
9052;SDS011;4561;47.450;7.516;2023-06-10T17:10:09;7.82;;;6.28;;
9052;SDS011;4561;47.450;7.516;2023-06-10T17:13:30;6.70;;;6.20;;
9052;SDS011;4561;47.450;7.516;2023-06-10T17:16:51;6.18;;;5.57;;
9052;SDS011;4561;47.450;7.516;2023-06-10T17:20:11;6.88;;;6.20;;
9052;SDS011;4561;47.450;7.516;2023-06-10T17:23:32;6.13;;;5.63;;
9052;SDS011;4561;47.450;7.516;2023-06-10T17:26:52;6.00;;;5.28;;
9052;SDS011;4561;47.450;7.516;2023-06-10T17:30:13;6.65;;;5.72;;
9052;SDS011;4561;47.450;7.516;2023-06-10T17:33:35;6.30;;;5.70;;
9052;SDS011;4561;47.450;7.516;2023-06-10T17:36:56;6.75;;;6.15;;
9052;SDS011;4561;47.450;7.516;2023-06-10T17:40:17;5.75;;;5.32;;
9052;SDS011;4561;47.450;7.516;2023-06-10T17:43:40;6.20;;;5.60;;
9052;SDS011;4561;47.450;7.516;2023-06-10T17:47:00;6.10;;;5.65;;
9052;SDS011;4561;47.450;7.516;2023-06-10T17:50:23;6.25;;;5.75;;
9052;SDS011;4561;47.450;7.516;2023-06-10T17:53:46;6.78;;;6.10;;
9052;SDS011;4561;47.450;7.516;2023-06-10T17:57:06;7.05;;;5.38;;
9052;SDS011;4561;47.450;7.516;2023-06-10T18:00:27;6.13;;;5.35;;
9052;SDS011;4561;47.450;7.516;2023-06-10T18:03:47;5.85;;;5.38;;
9052;SDS011;4561;47.450;7.516;2023-06-10T18:07:08;6.95;;;6.07;;
9052;SDS011;4561;47.450;7.516;2023-06-10T18:10:30;5.95;;;5.32;;
9052;SDS011;4561;47.450;7.516;2023-06-10T18:13:53;5.93;;;5.32;;
9052;SDS011;4561;47.450;7.516;2023-06-10T18:17:13;4.88;;;4.53;;
9052;SDS011;4561;47.450;7.516;2023-06-10T18:20:34;7.45;;;4.63;;
9052;SDS011;4561;47.450;7.516;2023-06-10T18:23:54;5.47;;;4.35;;
9052;SDS011;4561;47.450;7.516;2023-06-10T18:27:18;9.25;;;4.78;;
9052;SDS011;4561;47.450;7.516;2023-06-10T18:30:38;5.15;;;4.65;;
9052;SDS011;4561;47.450;7.516;2023-06-10T18:33:59;4.82;;;4.35;;
9052;SDS011;4561;47.450;7.516;2023-06-10T18:37:19;6.15;;;4.47;;
9052;SDS011;4561;47.450;7.516;2023-06-10T18:40:42;4.65;;;4.28;;
9052;SDS011;4561;47.450;7.516;2023-06-10T18:44:05;4.75;;;4.40;;
9052;SDS011;4561;47.450;7.516;2023-06-10T18:47:26;4.63;;;4.32;;
9052;SDS011;4561;47.450;7.516;2023-06-10T18:50:46;4.25;;;3.85;;
9052;SDS011;4561;47.450;7.516;2023-06-10T18:54:07;5.82;;;4.50;;
9052;SDS011;4561;47.450;7.516;2023-06-10T18:57:27;5.18;;;4.32;;
9052;SDS011;4561;47.450;7.516;2023-06-10T19:00:50;4.35;;;4.05;;
9052;SDS011;4561;47.450;7.516;2023-06-10T19:04:13;7.07;;;4.32;;
9052;SDS011;4561;47.450;7.516;2023-06-10T19:07:36;5.55;;;4.30;;
9052;SDS011;4561;47.450;7.516;2023-06-10T19:10:56;4.65;;;4.35;;
9052;SDS011;4561;47.450;7.516;2023-06-10T19:14:17;4.95;;;4.32;;
9052;SDS011;4561;47.450;7.516;2023-06-10T19:17:37;5.85;;;4.30;;
9052;SDS011;4561;47.450;7.516;2023-06-10T19:20:59;4.53;;;4.13;;
9052;SDS011;4561;47.450;7.516;2023-06-10T19:24:19;4.88;;;4.22;;
9052;SDS011;4561;47.450;7.516;2023-06-10T19:27:43;4.40;;;3.88;;
9052;SDS011;4561;47.450;7.516;2023-06-10T19:31:03;4.30;;;4.00;;
9052;SDS011;4561;47.450;7.516;2023-06-10T19:34:23;4.10;;;3.78;;
9052;SDS011;4561;47.450;7.516;2023-06-10T19:37:45;4.55;;;4.15;;
9052;SDS011;4561;47.450;7.516;2023-06-10T19:41:05;6.63;;;4.40;;
9052;SDS011;4561;47.450;7.516;2023-06-10T19:44:31;5.00;;;4.15;;
9052;SDS011;4561;47.450;7.516;2023-06-10T19:47:51;4.63;;;4.22;;
9052;SDS011;4561;47.450;7.516;2023-06-10T19:51:12;4.32;;;3.92;;
9052;SDS011;4561;47.450;7.516;2023-06-10T19:54:33;3.97;;;3.67;;
9052;SDS011;4561;47.450;7.516;2023-06-10T19:57:58;4.53;;;3.60;;
9052;SDS011;4561;47.450;7.516;2023-06-10T20:01:18;4.05;;;3.75;;
9052;SDS011;4561;47.450;7.516;2023-06-10T20:04:39;4.85;;;3.85;;
9052;SDS011;4561;47.450;7.516;2023-06-10T20:07:59;4.95;;;4.55;;
9052;SDS011;4561;47.450;7.516;2023-06-10T20:11:20;4.82;;;4.20;;
9052;SDS011;4561;47.450;7.516;2023-06-10T20:14:41;4.57;;;4.18;;
9052;SDS011;4561;47.450;7.516;2023-06-10T20:18:02;4.78;;;4.38;;
9052;SDS011;4561;47.450;7.516;2023-06-10T20:21:22;4.60;;;4.20;;
9052;SDS011;4561;47.450;7.516;2023-06-10T20:24:43;4.43;;;4.03;;
9052;SDS011;4561;47.450;7.516;2023-06-10T20:28:03;5.57;;;4.25;;
9052;SDS011;4561;47.450;7.516;2023-06-10T20:31:24;4.95;;;4.55;;
9052;SDS011;4561;47.450;7.516;2023-06-10T20:34:46;4.07;;;3.78;;
9052;SDS011;4561;47.450;7.516;2023-06-10T20:38:06;4.55;;;3.63;;
9052;SDS011;4561;47.450;7.516;2023-06-10T20:41:27;5.55;;;3.92;;
9052;SDS011;4561;47.450;7.516;2023-06-10T20:44:48;3.97;;;3.67;;
9052;SDS011;4561;47.450;7.516;2023-06-10T20:48:09;4.22;;;3.75;;
9052;SDS011;4561;47.450;7.516;2023-06-10T20:51:32;4.10;;;3.80;;
9052;SDS011;4561;47.450;7.516;2023-06-10T20:54:52;6.80;;;4.00;;
9052;SDS011;4561;47.450;7.516;2023-06-10T20:58:15;4.22;;;3.83;;
9052;SDS011;4561;47.450;7.516;2023-06-10T21:01:36;5.13;;;3.88;;
9052;SDS011;4561;47.450;7.516;2023-06-10T21:04:57;4.05;;;3.75;;
9052;SDS011;4561;47.450;7.516;2023-06-10T21:08:20;4.72;;;4.32;;
9052;SDS011;4561;47.450;7.516;2023-06-10T21:11:40;4.05;;;3.75;;